Terminal Aerodrome Forecast
Issued by NWS Knoxville/Tri Cities, TN

Home | Current Version | Previous Version | Text Only | Print | Product List | Glossary On
Versions: 1 2 3 4 5 6 7 8 9 10 11 12 13 14 15 16 17 18 19 20 21 22 23 24 25 26 27 28 29 30 31 32 33 34 35 36 37 38
589
FTUS44 KMRX 260136 AAA
TAFTRI
TAF AMD
KTRI 260136Z 2602/2624 VRB05KT P6SM VCSH SCT050 BKN080
     FM260400 VRB04KT P6SM SCT100 BKN120
     FM261300 23008KT P6SM VCTS SCT050CB BKN150=

USA.gov is the U.S. government's official web portal to all federal, state and local government web resources and services.